createdAt,value
2022-09-14T00:02:08.487Z,19.30
2022-09-14T00:07:10.352Z,19.30
2022-09-14T00:12:12.165Z,19.20
2022-09-14T00:17:13.904Z,19.20
2022-09-14T00:22:15.619Z,19.10
2022-09-14T00:27:17.885Z,19.10
2022-09-14T00:32:19.713Z,19.10
2022-09-14T00:37:21.363Z,19.10
2022-09-14T00:42:23.085Z,19.10
2022-09-14T00:47:25.897Z,19.00
2022-09-14T00:52:30.616Z,19.00
2022-09-14T00:57:43.776Z,19.00
2022-09-14T01:02:45.686Z,19.00
2022-09-14T01:08:11.850Z,18.90
2022-09-14T01:13:37.059Z,18.90
2022-09-14T01:18:50.033Z,18.90
2022-09-14T01:24:08.553Z,18.80
2022-09-14T01:29:10.225Z,18.80
2022-09-14T01:34:21.022Z,18.80
2022-09-14T01:39:23.540Z,18.90
2022-09-14T01:44:30.893Z,18.90
2022-09-14T01:49:41.429Z,18.90
2022-09-14T01:54:49.726Z,18.80
2022-09-14T01:59:55.797Z,18.80
2022-09-14T02:05:06.689Z,18.80
2022-09-14T02:10:11.676Z,18.80
2022-09-14T02:15:15.209Z,18.80
2022-09-14T02:20:52.316Z,18.80
2022-09-14T02:25:54.246Z,18.70
2022-09-14T02:31:01.725Z,18.70
2022-09-14T02:36:13.543Z,18.80
2022-09-14T02:41:41.977Z,18.70
2022-09-14T02:46:54.150Z,18.70
2022-09-14T02:52:15.906Z,18.70
2022-09-14T02:57:17.616Z,18.80
2022-09-14T03:02:19.360Z,18.70
2022-09-14T03:07:21.044Z,18.70
2022-09-14T03:12:22.742Z,18.70
2022-09-14T03:17:24.383Z,18.80
2022-09-14T03:22:26.042Z,18.70
2022-09-14T03:27:27.821Z,18.80
2022-09-14T03:32:29.512Z,18.80
2022-09-14T03:37:31.221Z,18.70
2022-09-14T03:42:33.012Z,18.70
2022-09-14T03:47:34.613Z,18.80
2022-09-14T03:52:37.460Z,18.80
2022-09-14T03:57:39.168Z,18.80
2022-09-14T04:02:41.239Z,18.80
2022-09-14T04:07:42.997Z,18.80
2022-09-14T04:12:44.735Z,18.80
2022-09-14T04:17:47.577Z,18.80
2022-09-14T04:22:49.194Z,18.80
2022-09-14T04:28:04.139Z,18.80
2022-09-14T04:33:12.621Z,18.80
2022-09-14T04:38:14.323Z,18.80
2022-09-14T04:43:16.420Z,18.80
2022-09-14T04:48:18.661Z,18.80
2022-09-14T04:53:20.267Z,18.80
2022-09-14T04:58:21.862Z,18.80
2022-09-14T05:03:23.590Z,18.70
2022-09-14T05:08:25.240Z,18.80
2022-09-14T05:13:28.116Z,18.80
2022-09-14T05:18:29.777Z,18.70
2022-09-14T05:23:31.882Z,18.70
2022-09-14T05:28:34.720Z,18.80
2022-09-14T05:33:37.198Z,18.70
2022-09-14T05:38:39.896Z,18.80
2022-09-14T05:43:42.564Z,18.70
2022-09-14T05:48:44.275Z,18.70
2022-09-14T05:53:54.305Z,18.80
2022-09-14T05:58:56.158Z,18.80
2022-09-14T06:04:00.357Z,18.80
2022-09-14T06:09:02.361Z,18.70
2022-09-14T06:14:05.114Z,18.90
2022-09-14T06:19:06.797Z,18.80
2022-09-14T06:24:10.276Z,18.80
2022-09-14T06:29:11.958Z,18.80
2022-09-14T06:34:13.642Z,18.80
2022-09-14T06:39:15.398Z,18.90
2022-09-14T06:44:17.108Z,18.90
2022-09-14T06:49:22.878Z,18.80
2022-09-14T06:54:25.388Z,18.90
2022-09-14T06:59:27.073Z,18.90
2022-09-14T07:04:28.823Z,18.90
2022-09-14T07:09:31.720Z,18.90
2022-09-14T07:14:33.485Z,18.90
2022-09-14T07:19:35.220Z,18.90
2022-09-14T07:24:36.829Z,19.00
2022-09-14T07:29:38.465Z,18.90
2022-09-14T07:34:40.161Z,18.90
2022-09-14T07:39:42.091Z,19.00
2022-09-14T07:44:43.736Z,18.90
2022-09-14T07:49:45.472Z,19.00
2022-09-14T07:54:47.132Z,18.90
2022-09-14T07:59:48.817Z,18.90
2022-09-14T08:04:52.884Z,18.90
2022-09-14T08:09:54.591Z,19.00
2022-09-14T08:14:56.279Z,18.90
2022-09-14T08:19:57.898Z,18.90
2022-09-14T08:24:59.554Z,19.00
2022-09-14T08:30:01.318Z,19.00
2022-09-14T08:35:03.069Z,19.10
2022-09-14T08:40:05.449Z,19.00
2022-09-14T08:45:09.742Z,19.00
2022-09-14T08:50:17.544Z,19.00
2022-09-14T08:55:41.397Z,19.00
2022-09-14T09:00:51.119Z,19.00
2022-09-14T09:06:18.049Z,19.00
2022-09-14T09:11:22.706Z,19.00
2022-09-14T09:16:26.031Z,19.00
2022-09-14T09:21:35.449Z,19.00
2022-09-14T09:26:38.991Z,19.10
2022-09-14T09:31:48.755Z,19.10
2022-09-14T09:36:50.702Z,19.20
2022-09-14T09:42:07.428Z,19.20
2022-09-14T09:47:09.195Z,19.20
2022-09-14T09:52:16.768Z,19.30
2022-09-14T09:57:31.300Z,19.20
2022-09-14T10:02:33.069Z,19.30
2022-09-14T10:07:39.203Z,19.30
2022-09-14T10:12:49.301Z,19.30
2022-09-14T10:17:55.355Z,19.40
2022-09-14T10:23:17.641Z,19.30
2022-09-14T10:28:24.117Z,19.40
2022-09-14T10:33:25.924Z,19.40
2022-09-14T10:38:52.875Z,19.40
2022-09-14T10:44:05.369Z,19.50
2022-09-14T10:49:24.567Z,19.50
2022-09-14T10:54:32.541Z,19.50
2022-09-14T10:59:43.380Z,19.40
2022-09-14T11:05:07.113Z,19.30
2022-09-14T11:10:30.057Z,19.20
2022-09-14T11:16:06.070Z,19.20
2022-09-14T11:21:39.347Z,19.00
2022-09-14T11:26:45.245Z,19.00
2022-09-14T11:32:19.739Z,19.00
2022-09-14T11:37:41.559Z,18.90
2022-09-14T11:42:46.144Z,18.90
2022-09-14T11:48:01.312Z,18.90
2022-09-14T11:53:15.510Z,18.90
2022-09-14T11:58:23.693Z,19.00
2022-09-14T12:03:52.141Z,18.90
2022-09-14T12:08:54.110Z,18.90
2022-09-14T12:14:19.314Z,18.90
2022-09-14T12:38:38.183Z,19.00
2022-09-14T13:28:32.059Z,19.10
2022-09-14T13:33:33.826Z,19.00
2022-09-14T13:38:37.985Z,19.00
2022-09-14T13:43:43.636Z,19.00
2022-09-14T13:48:45.599Z,18.80
2022-09-14T13:54:36.587Z,18.70
2022-09-14T14:00:14.231Z,18.70
2022-09-14T14:05:41.410Z,18.70
2022-09-14T14:10:47.436Z,18.70
2022-09-14T14:15:49.077Z,18.70
2022-09-14T14:20:50.805Z,18.60
2022-09-14T14:26:08.759Z,18.70
2022-09-14T14:31:18.411Z,18.60
2022-09-14T14:36:20.149Z,18.70
2022-09-14T14:41:22.877Z,18.70
2022-09-14T14:46:32.013Z,18.60
2022-09-14T14:51:33.804Z,18.70
2022-09-14T14:56:38.707Z,18.60
2022-09-14T15:01:40.426Z,18.60
2022-09-14T15:06:42.312Z,18.50
2022-09-14T15:11:44.314Z,18.30
2022-09-14T15:16:47.949Z,18.10
2022-09-14T15:21:49.722Z,17.90
2022-09-14T15:26:51.638Z,17.90
2022-09-14T15:31:53.418Z,17.80
2022-09-14T15:36:57.360Z,17.80
2022-09-14T15:42:03.245Z,17.80
2022-09-14T15:47:05.174Z,17.70
2022-09-14T15:52:08.178Z,17.70
2022-09-14T15:57:11.928Z,17.60
2022-09-14T16:02:13.719Z,17.70
2022-09-14T16:07:15.597Z,17.70
2022-09-14T16:12:17.243Z,17.60
2022-09-14T16:17:18.952Z,17.60
2022-09-14T16:22:21.743Z,17.60
2022-09-14T16:27:23.541Z,17.60
2022-09-14T16:32:25.392Z,17.60
2022-09-14T16:37:27.104Z,17.50
2022-09-14T16:42:28.821Z,17.50
2022-09-14T16:47:32.184Z,17.50
2022-09-14T16:52:33.955Z,17.40
2022-09-14T16:57:35.792Z,17.40
2022-09-14T17:02:59.503Z,17.40
2022-09-14T17:08:01.446Z,17.40
2022-09-14T17:13:03.171Z,17.30
2022-09-14T17:18:05.418Z,17.20
2022-09-14T17:23:07.070Z,17.20
2022-09-14T17:28:08.675Z,17.10
2022-09-14T17:33:10.422Z,17.10
2022-09-14T17:38:12.153Z,17.10
2022-09-14T17:43:14.544Z,17.00
2022-09-14T17:48:16.323Z,17.00
2022-09-14T17:53:18.186Z,17.00
2022-09-14T17:58:20.004Z,16.90
2022-09-14T18:03:21.780Z,17.00
2022-09-14T18:08:23.488Z,16.90
2022-09-14T18:13:25.228Z,16.90
2022-09-14T18:18:27.297Z,16.90
2022-09-14T18:23:29.409Z,16.70
2022-09-14T18:28:31.610Z,16.80
2022-09-14T18:33:36.548Z,16.60
2022-09-14T18:38:38.398Z,16.70
2022-09-14T18:43:47.027Z,16.80
2022-09-14T18:48:51.340Z,16.70
2022-09-14T18:54:03.774Z,16.70
2022-09-14T18:59:11.498Z,16.70
2022-09-14T19:04:15.828Z,16.70
2022-09-14T19:09:17.516Z,16.60
2022-09-14T19:14:20.653Z,16.70
2022-09-14T19:19:23.176Z,16.60
2022-09-14T19:24:30.629Z,16.60
2022-09-14T19:29:32.853Z,16.50
2022-09-14T19:34:34.670Z,16.50
2022-09-14T19:39:36.681Z,16.30
2022-09-14T19:44:41.624Z,16.30
2022-09-14T19:49:43.770Z,16.40
2022-09-14T19:54:45.663Z,16.40
2022-09-14T19:59:47.670Z,16.40
2022-09-14T20:05:03.886Z,16.40
2022-09-14T20:10:06.099Z,16.40
2022-09-14T20:15:08.191Z,16.40
2022-09-14T20:20:11.395Z,16.40
2022-09-14T20:25:13.574Z,16.50
2022-09-14T20:30:15.278Z,16.40
2022-09-14T20:35:17.050Z,16.40
2022-09-14T20:40:18.855Z,16.40
2022-09-14T20:45:20.625Z,16.40
2022-09-14T20:50:22.296Z,16.30
2022-09-14T20:55:24.057Z,16.30
2022-09-14T21:00:25.770Z,16.30
2022-09-14T21:05:27.966Z,16.20
2022-09-14T21:10:30.088Z,16.20
2022-09-14T21:15:33.069Z,16.20
2022-09-14T21:20:38.756Z,16.10
2022-09-14T21:25:40.608Z,16.00
2022-09-14T21:30:42.339Z,16.00
2022-09-14T21:35:44.104Z,15.90
2022-09-14T21:40:45.759Z,15.80
2022-09-14T21:45:47.409Z,15.90
2022-09-14T21:50:49.099Z,15.80
2022-09-14T21:55:50.832Z,15.70
2022-09-14T22:00:57.721Z,15.70
2022-09-14T22:06:05.980Z,15.70
2022-09-14T22:11:20.055Z,15.70
2022-09-14T22:16:25.569Z,15.70
2022-09-14T22:21:28.876Z,15.70
2022-09-14T22:26:32.040Z,15.70
2022-09-14T22:31:33.841Z,15.50
2022-09-14T22:36:35.850Z,15.50
2022-09-14T22:41:38.025Z,15.40
2022-09-14T22:46:39.717Z,15.40
2022-09-14T22:51:41.588Z,15.30
2022-09-14T22:56:43.313Z,15.30
2022-09-14T23:01:45.104Z,15.30
2022-09-14T23:06:48.124Z,15.30
2022-09-14T23:11:49.803Z,15.20
2022-09-14T23:16:51.539Z,15.20
2022-09-14T23:21:53.176Z,15.20
2022-09-14T23:26:54.881Z,15.20
2022-09-14T23:31:56.562Z,15.20
2022-09-14T23:36:58.310Z,15.10
2022-09-14T23:42:00.083Z,15.10
2022-09-14T23:47:01.986Z,15.00
2022-09-14T23:52:03.731Z,15.10
2022-09-14T23:57:05.500Z,15.10
